Impacts METAR Board
IDs:

KMNZ - Hamilton Muni, TX, US

Updated at: 1300 UTC 14 Dec 2019
Potential Impact None Slight Moderate High
Time 14/01Z 14/02Z 14/03Z 14/04Z 14/05Z 14/06Z 14/07Z 14/08Z 14/09Z 14/10Z 14/11Z 14/12Z 14/13Z
Temp58 59 49 51 53 47 46 49 49 45 44 46 45
Dewpt39 39 38 38 37 37 37 40 40 40 40 40 40
Altim29.87 29.88 29.88 29.90 29.89 29.89 29.89 29.88 29.89 29.88 29.88 29.89 29.87
VIS10 10 10 10 10 10 10 10 10 10 10 10 10
CIG-- -- -- -- -- -- -- -- -- -- -- -- --
CoverCLRCLRCLRCLRCLRCLRCLRCLRCLRCLRCLRCLRCLR
FltCatVFRVFRVFRVFRVFRVFRVFRVFRVFRVFRVFRVFRVFR
WX--------------------------
WDir700000210016016070100110110
WSpd3 0 0 0 0 4 0 3 4 4 4 3 6
WGst-- -- -- -- -- -- -- -- -- -- -- -- --
Raw hourly METARs
KMNZ 140050Z AUTO 07003KT 10SM CLR 15/04 A2987 RMK AO2 T01450040
KMNZ 140155Z AUTO 00000KT 10SM CLR 15/04 A2988 RMK AO2 T01510040
KMNZ 140300Z AUTO 00000KT 10SM CLR 10/04 A2988 RMK AO2 T00960035
KMNZ 140355Z AUTO 00000KT 10SM CLR 11/03 A2990 RMK AO2 T01060031
KMNZ 140455Z AUTO 00000KT 10SM CLR 12/03 A2989 RMK AO2 T01180030
KMNZ 140555Z AUTO 21004KT 10SM CLR 08/03 A2989 RMK AO2 T00820029 10160 20076 402050045
KMNZ 140655Z AUTO 00000KT 10SM CLR 08/03 A2989 RMK AO2 T00770030
KMNZ 140800Z AUTO 16003KT 10SM CLR 10/05 A2988 RMK AO2 T00950045
KMNZ 140855Z AUTO 16004KT 10SM CLR 09/05 A2989 RMK AO2 T00920046
KMNZ 140955Z AUTO 07004KT 10SM CLR 07/04 A2988 RMK AO2 T00700043
KMNZ 141055Z AUTO 10004KT 10SM CLR 07/05 A2988 RMK AO2 T00670046
KMNZ 141155Z AUTO 11003KT 10SM CLR 08/05 A2989 RMK AO2 T00750045 10102 20065
KMNZ 141250Z AUTO 11006KT 10SM CLR 07/05 A2987 RMK AO2 T00710045



Page loaded:  13:36 UTC  |   05:36 AM Pacific  |   06:36 AM Mountain  |   07:36 AM Central  |   08:36 AM Eastern

 

ADVISORIES

FORECASTS

FORECASTS

OBSERVATIONS

USER TOOLS

ABOUT US